Time;durP1;ratioP1;P1;durP2;ratioP2;P2;SDS_P1;SDS_P2;PMS_P1;PMS_P2;Temp;Humidity;BMP_temperature;BMP_pressure;BME280_temperature;BME280_humidity;BME280_pressure;Samples;Min_cycle;Max_cycle;Signal;HPM_P1;HPM_P2
2022/09/12 00:00:29;;;;;;;4.32;2.83;;;;;;;14.43;100.00;99951.94;5009226;28;20487;-85
2022/09/12 00:02:55;;;;;;;4.35;2.88;;;;;;;14.45;100.00;99955.00;5009959;28;20113;-85
2022/09/12 00:05:21;;;;;;;3.00;2.47;;;;;;;14.62;100.00;99956.25;5008850;28;20567;-85
2022/09/12 00:07:47;;;;;;;4.78;3.00;;;;;;;14.62;100.00;99961.84;4991209;28;20412;-85
2022/09/12 00:10:13;;;;;;;3.45;3.00;;;;;;;14.68;100.00;99951.56;4988738;28;20041;-85
2022/09/12 00:12:38;;;;;;;3.65;3.10;;;;;;;14.72;100.00;99957.78;5004271;28;20037;-85
2022/09/12 00:15:04;;;;;;;3.70;2.90;;;;;;;14.71;100.00;99961.84;5007445;28;20049;-85
2022/09/12 00:17:33;;;;;;;4.25;3.00;;;;;;;14.71;100.00;99961.84;5005168;28;20042;-85
2022/09/12 00:19:58;;;;;;;3.90;3.28;;;;;;;14.70;100.00;99960.28;4982994;28;20057;-85
2022/09/12 00:22:24;;;;;;;4.57;3.17;;;;;;;14.70;100.00;99956.69;5006672;28;20042;-85
2022/09/12 00:24:49;;;;;;;3.53;2.42;;;;;;;14.57;100.00;99956.88;5005382;28;20439;-85
2022/09/12 00:27:15;;;;;;;2.95;2.30;;;;;;;14.37;100.00;99956.56;5008029;28;20061;-86
2022/09/12 00:29:41;;;;;;;6.55;2.40;;;;;;;14.26;100.00;99964.59;4991640;28;20419;-85
2022/09/12 00:32:06;;;;;;;3.22;1.90;;;;;;;14.14;100.00;99960.72;4989297;28;20050;-85
2022/09/12 00:34:32;;;;;;;3.45;2.30;;;;;;;14.10;100.00;99962.09;5007727;28;20172;-86
2022/09/12 00:36:57;;;;;;;4.72;2.47;;;;;;;13.99;100.00;99959.75;5007743;28;20411;-85
2022/09/12 00:39:23;;;;;;;2.78;2.28;;;;;;;13.93;100.00;99948.44;5005603;28;20195;-84
2022/09/12 00:41:48;;;;;;;3.95;2.75;;;;;;;13.94;100.00;99961.16;4992799;28;20069;-86
2022/09/12 00:44:14;;;;;;;4.50;3.35;;;;;;;13.93;100.00;99965.16;5009852;28;20081;-85
2022/09/12 00:46:39;;;;;;;3.92;3.30;;;;;;;13.94;100.00;99971.53;5010494;28;20045;-86
2022/09/12 00:49:23;;;;;;;4.13;3.53;;;;;;;13.97;100.00;99965.78;5007842;28;20034;-85
2022/09/12 00:51:55;;;;;;;5.30;3.75;;;;;;;13.99;100.00;99971.66;4969987;28;20589;-84
2022/09/12 00:54:27;;;;;;;4.85;3.58;;;;;;;14.05;100.00;99965.50;4987859;28;20073;-76
2022/09/12 00:56:55;;;;;;;4.47;3.53;;;;;;;14.08;100.00;99970.13;4993068;28;20050;-75
2022/09/12 00:59:24;;;;;;;5.53;3.58;;;;;;;14.08;100.00;99970.13;5002066;28;20053;-75
2022/09/12 01:01:50;;;;;;;5.07;3.97;;;;;;;14.10;100.00;99968.44;4993132;28;20081;-76
2022/09/12 01:04:18;;;;;;;4.35;3.63;;;;;;;14.07;100.00;99968.59;5011324;28;20057;-76
2022/09/12 01:06:44;;;;;;;5.22;4.00;;;;;;;14.05;100.00;99971.06;5005645;28;20067;-76
2022/09/12 01:09:13;;;;;;;5.25;3.97;;;;;;;14.09;100.00;99960.53;5010719;28;20511;-76
2022/09/12 01:11:39;;;;;;;6.55;4.53;;;;;;;14.09;100.00;99960.53;5010756;28;20446;-76
2022/09/12 01:14:05;;;;;;;5.80;4.20;;;;;;;14.07;100.00;99954.66;5010331;28;20056;-76
2022/09/12 01:16:34;;;;;;;5.65;4.63;;;;;;;14.15;100.00;99953.13;5010339;28;20045;-76
2022/09/12 01:19:25;;;;;;;7.28;4.43;;;;;;;14.17;100.00;99947.84;5009330;28;20141;-76
2022/09/12 01:22:28;;;;;;;6.32;4.65;;;;;;;14.25;100.00;99947.06;5008945;28;20049;-75
2022/09/12 01:25:04;;;;;;;5.43;4.50;;;;;;;14.25;100.00;99943.50;5007813;28;20164;-76
2022/09/12 01:27:35;;;;;;;4.90;4.40;;;;;;;14.29;100.00;99941.34;5011946;28;20038;-76
2022/09/12 01:30:20;;;;;;;5.90;4.72;;;;;;;14.29;100.00;99939.31;5013519;28;20046;-76
2022/09/12 01:32:49;;;;;;;8.23;4.88;;;;;;;14.30;100.00;99937.31;5009815;28;20050;-85
2022/09/12 01:35:24;;;;;;;5.43;4.60;;;;;;;14.26;100.00;99931.13;5008560;28;20095;-85
2022/09/12 01:38:08;;;;;;;5.88;4.60;;;;;;;14.27;100.00;99932.66;5010219;28;20045;-85
2022/09/12 01:40:40;;;;;;;5.95;4.78;;;;;;;14.23;100.00;99938.41;5009142;28;20125;-85
2022/09/12 01:43:35;;;;;;;6.07;4.80;;;;;;;14.20;100.00;99921.81;5009551;28;20045;-85
2022/09/12 01:46:12;;;;;;;6.85;4.50;;;;;;;14.21;100.00;99923.34;5004391;28;20038;-85
2022/09/12 01:48:44;;;;;;;5.65;4.43;;;;;;;14.17;100.00;99931.88;4994163;28;20042;-85
2022/09/12 01:51:26;;;;;;;5.07;4.40;;;;;;;14.17;100.00;99934.66;5012761;28;20046;-85
2022/09/12 01:54:02;;;;;;;5.25;4.60;;;;;;;14.18;100.00;99941.03;5010357;28;20116;-85
2022/09/12 01:56:31;;;;;;;6.55;4.70;;;;;;;14.18;100.00;99939.03;5010299;28;20045;-84
2022/09/12 01:58:59;;;;;;;6.82;4.90;;;;;;;14.21;100.00;99940.09;5026134;28;20049;-84
2022/09/12 02:01:31;;;;;;;5.13;4.40;;;;;;;14.19;100.00;99937.00;5010191;28;20044;-85
2022/09/12 02:03:59;;;;;;;6.50;4.80;;;;;;;14.19;100.00;99939.78;5017388;28;20385;-85
2022/09/12 02:06:43;;;;;;;5.97;4.43;;;;;;;14.17;100.00;99928.31;5005124;28;20484;-85
2022/09/12 02:09:18;;;;;;;5.40;4.80;;;;;;;14.12;100.00;99926.13;5005000;28;20100;-85
2022/09/12 02:11:44;;;;;;;5.30;4.80;;;;;;;14.15;100.00;99928.00;5010691;28;20496;-84
2022/09/12 02:14:21;;;;;;;6.65;4.95;;;;;;;14.13;100.00;99922.13;5010146;28;20088;-85
2022/09/12 02:16:57;;;;;;;6.60;5.38;;;;;;;14.12;100.00;99918.53;4993132;28;20046;-85
2022/09/12 02:19:28;;;;;;;6.40;5.22;;;;;;;14.14;100.00;99912.50;5009630;28;20049;-85
2022/09/12 02:21:56;;;;;;;6.47;5.07;;;;;;;14.11;100.00;99924.59;5011466;28;20084;-85
2022/09/12 02:24:28;;;;;;;6.00;5.05;;;;;;;14.11;100.00;99916.22;5010570;28;20042;-85
2022/09/12 02:27:03;;;;;;;5.93;5.13;;;;;;;14.03;100.00;99916.53;5001878;28;20053;-85
2022/09/12 02:29:29;;;;;;;5.85;5.20;;;;;;;14.00;100.00;99902.72;5009322;28;20038;-85
2022/09/12 02:31:59;;;;;;;8.23;5.43;;;;;;;13.99;100.00;99918.69;5010660;28;20037;-85
2022/09/12 02:34:43;;;;;;;6.65;5.85;;;;;;;13.97;100.00;99918.38;5009362;28;20049;-84
2022/09/12 02:37:38;;;;;;;7.53;4.93;;;;;;;13.97;100.00;99920.41;5002506;28;20093;-85
2022/09/12 02:40:07;;;;;;;6.22;5.63;;;;;;;13.94;100.00;99910.94;5007585;28;20503;-84
2022/09/12 02:42:34;;;;;;;5.65;5.05;;;;;;;13.92;100.00;99916.19;5005802;28;20045;-85
2022/09/12 02:45:01;;;;;;;7.13;5.78;;;;;;;13.93;100.00;99919.78;5009873;28;20048;-76
2022/09/12 02:47:34;;;;;;;6.40;5.55;;;;;;;13.88;100.00;99918.38;5007916;28;20038;-76
2022/09/12 02:50:00;;;;;;;6.15;5.32;;;;;;;13.84;100.00;99922.53;5010232;28;20400;-76
2022/09/12 02:52:26;;;;;;;5.90;5.30;;;;;;;13.81;100.00;99915.88;5010228;28;20085;-76
2022/09/12 02:54:52;;;;;;;7.43;5.63;;;;;;;13.79;100.00;99920.38;5010319;28;20046;-75
2022/09/12 02:57:20;;;;;;;6.45;5.50;;;;;;;13.78;100.00;99913.25;5010095;28;20554;-76
2022/09/12 02:59:46;;;;;;;7.65;5.55;;;;;;;13.75;100.00;99914.94;5006235;28;20042;-76
2022/09/12 03:02:29;;;;;;;7.22;5.38;;;;;;;13.74;100.00;99907.81;5005646;28;21438;-76
2022/09/12 03:05:10;;;;;;;8.47;5.63;;;;;;;13.72;100.00;99921.44;5020715;28;20077;-76
2022/09/12 03:08:04;;;;;;;7.60;6.00;;;;;;;13.69;100.00;99916.78;5005126;28;20712;-76
2022/09/12 03:10:57;;;;;;;7.07;5.97;;;;;;;13.68;100.00;99915.22;5007448;28;20037;-75
2022/09/12 03:13:43;;;;;;;6.57;5.77;;;;;;;13.68;100.00;99920.03;4992618;28;20404;-76
2022/09/12 03:16:16;;;;;;;6.85;5.85;;;;;;;13.68;100.00;99920.81;5009348;28;20332;-76
2022/09/12 03:18:59;;;;;;;9.90;6.25;;;;;;;13.61;100.00;99915.53;4990969;28;20052;-76
2022/09/12 03:21:48;;;;;;;7.85;6.22;;;;;;;13.59;100.00;99917.97;5004617;28;20454;-76
2022/09/12 03:24:20;;;;;;;8.25;6.00;;;;;;;13.60;100.00;99919.53;5008967;28;20432;-76
2022/09/12 03:26:53;;;;;;;6.90;5.80;;;;;;;13.59;100.00;99920.03;4988298;28;20046;-77
2022/09/12 03:29:19;;;;;;;7.05;5.55;;;;;;;13.57;100.00;99923.25;5008821;28;20466;-76
2022/09/12 03:31:56;;;;;;;6.60;5.43;;;;;;;13.55;100.00;99918.13;4987042;28;20096;-76
2022/09/12 03:34:23;;;;;;;6.57;5.35;;;;;;;13.54;100.00;99913.03;5008285;28;20517;-76
2022/09/12 03:36:49;;;;;;;6.60;5.45;;;;;;;13.57;100.00;99917.69;5010114;28;20050;-75
2022/09/12 03:39:15;;;;;;;6.85;6.15;;;;;;;13.57;100.00;99917.69;5008079;28;20042;-76
2022/09/12 03:41:41;;;;;;;6.40;5.45;;;;;;;13.57;100.00;99920.47;5008546;28;20044;-76
2022/09/12 03:44:07;;;;;;;6.43;5.53;;;;;;;13.60;100.00;99925.13;4991224;28;20570;-76
2022/09/12 03:46:32;;;;;;;6.07;5.47;;;;;;;13.53;100.00;99919.84;5008730;28;20079;-76
2022/09/12 03:48:58;;;;;;;6.93;6.10;;;;;;;13.42;100.00;99914.72;5008694;28;20037;-76
2022/09/12 03:51:23;;;;;;;6.68;5.70;;;;;;;13.49;100.00;99924.78;5007685;28;20034;-76
2022/09/12 03:53:49;;;;;;;7.35;5.57;;;;;;;13.47;100.00;99928.00;5007311;28;20575;-76
2022/09/12 03:56:14;;;;;;;6.85;5.80;;;;;;;13.47;100.00;99932.81;4994269;28;20112;-76
2022/09/12 03:58:40;;;;;;;6.40;5.55;;;;;;;13.46;100.00;99934.06;5007078;28;20614;-76
2022/09/12 04:01:11;;;;;;;6.28;5.68;;;;;;;13.47;100.00;99941.16;5009795;28;20495;-76
2022/09/12 04:03:36;;;;;;;6.63;5.78;;;;;;;13.43;100.00;99937.75;5009777;28;20046;-76
2022/09/12 04:06:02;;;;;;;7.00;5.53;;;;;;;13.43;100.00;99943.31;5005957;28;20050;-76
2022/09/12 04:08:27;;;;;;;6.18;5.15;;;;;;;13.37;100.00;99945.94;4990561;28;20456;-76
2022/09/12 04:10:53;;;;;;;9.30;6.00;;;;;;;13.35;100.00;99948.41;5007192;28;20060;-76
2022/09/12 04:13:18;;;;;;;6.50;5.80;;;;;;;13.36;100.00;99946.41;5008239;28;20491;-76
2022/09/12 04:15:55;;;;;;;7.13;5.65;;;;;;;13.36;100.00;99954.75;5007789;28;20058;-76
2022/09/12 04:18:39;;;;;;;9.30;6.53;;;;;;;13.31;100.00;99949.78;5008012;28;20160;-76
2022/09/12 04:21:05;;;;;;;;;;;;;;;13.30;100.00;99956.59;5010431;28;20046;-76
2022/09/12 04:23:31;;;;;;;7.75;5.93;;;;;;;13.27;100.00;99958.28;4972082;28;19922;-76
2022/09/12 04:25:58;;;;;;;8.25;6.60;;;;;;;13.28;100.00;99959.06;4974863;28;20480;-76
2022/09/12 04:28:25;;;;;;;8.75;7.18;;;;;;;13.31;100.00;99964.47;4992054;28;20491;-76
2022/09/12 04:30:51;;;;;;;8.63;7.10;;;;;;;13.32;100.00;99954.13;4991732;28;20388;-76
2022/09/12 04:33:17;;;;;;;7.85;6.57;;;;;;;13.35;100.00;99956.75;4965027;28;20089;-76
2022/09/12 04:35:44;;;;;;;6.93;6.15;;;;;;;13.39;100.00;99959.41;5007609;28;20046;-75
2022/09/12 04:38:10;;;;;;;8.30;6.32;;;;;;;13.40;100.00;99958.19;4991159;28;20038;-76
2022/09/12 04:40:35;;;;;;;8.30;6.93;;;;;;;13.37;100.00;99956.31;5009026;28;20060;-77
2022/09/12 04:43:01;;;;;;;9.38;5.93;;;;;;;13.35;100.00;99953.19;4989923;28;20407;-76
2022/09/12 04:45:26;;;;;;;8.10;6.40;;;;;;;13.38;100.00;99963.44;5006072;28;20509;-77
2022/09/12 04:47:52;;;;;;;7.30;6.03;;;;;;;13.37;100.00;99951.53;5008405;28;20057;-76
2022/09/12 04:50:17;;;;;;;7.28;6.10;;;;;;;13.40;100.00;99949.81;5009072;28;20494;-77
2022/09/12 04:52:43;;;;;;;7.95;6.60;;;;;;;13.33;100.00;99953.66;5008200;28;20044;-76
2022/09/12 04:55:08;;;;;;;6.70;5.47;;;;;;;13.32;100.00;99949.31;5008540;28;20495;-76
2022/09/12 04:57:35;;;;;;;6.78;5.97;;;;;;;13.32;100.00;99940.19;5004863;28;20033;-76
2022/09/12 05:00:03;;;;;;;7.22;5.80;;;;;;;13.32;100.00;99949.31;4999453;28;20034;-76
2022/09/12 05:02:29;;;;;;;6.53;5.80;;;;;;;13.39;100.00;99959.41;5006789;28;20442;-75
2022/09/12 05:04:54;;;;;;;6.75;6.05;;;;;;;13.33;100.00;99952.88;5005550;28;20050;-76
2022/09/12 05:07:20;;;;;;;8.70;5.88;;;;;;;13.39;100.00;99964.97;4985421;28;20491;-76
2022/09/12 05:09:45;;;;;;;7.32;6.07;;;;;;;13.38;100.00;99969.81;4988626;28;20125;-77
2022/09/12 05:12:11;;;;;;;6.80;6.10;;;;;;;13.32;100.00;99970.84;4988159;28;20050;-76
2022/09/12 05:14:36;;;;;;;6.32;5.68;;;;;;;13.20;100.00;99969.69;4971339;28;20027;-76
2022/09/12 05:17:04;;;;;;;7.50;6.30;;;;;;;13.21;100.00;99976.03;4984091;28;20046;-77
2022/09/12 05:19:30;;;;;;;7.20;6.22;;;;;;;13.09;100.00;99974.88;4965503;28;20073;-76
2022/09/12 05:21:57;;;;;;;7.05;6.28;;;;;;;13.12;100.00;99981.56;4972854;28;20042;-77
2022/09/12 05:24:23;;;;;;;6.60;5.90;;;;;;;13.19;100.00;99972.94;4981327;28;20053;-77
2022/09/12 05:26:48;;;;;;;8.15;5.80;;;;;;;13.33;100.00;99983.53;4982713;28;20558;-77
2022/09/12 05:29:14;;;;;;;9.43;5.95;;;;;;;13.43;100.00;99985.13;4983637;28;20046;-76
2022/09/12 05:31:40;;;;;;;6.65;5.60;;;;;;;13.49;100.00;99969.38;4984211;28;20043;-77
2022/09/12 05:34:08;;;;;;;7.32;6.22;;;;;;;13.59;100.00;99978.53;4984688;28;20046;-77
2022/09/12 05:36:33;;;;;;;6.50;5.90;;;;;;;13.71;100.00;99983.97;4983272;28;20038;-91
2022/09/12 05:39:00;;;;;;;7.38;6.00;;;;;;;13.84;100.00;99967.94;4987801;28;20046;-92
2022/09/12 05:41:29;;;;;;;7.03;5.90;;;;;;;13.94;100.00;99977.88;4989680;28;20415;-92
2022/09/12 05:43:59;;;;;;;9.80;5.85;;;;;;;14.11;100.00;99975.59;4989085;28;20052;-89
2022/09/12 05:46:27;;;;;;;6.97;5.60;;;;;;;14.29;100.00;99983.19;4987276;28;20322;-89
2022/09/12 05:48:53;;;;;;;6.03;5.43;;;;;;;14.47;100.00;99983.25;4987618;28;20061;-90
2022/09/12 05:51:21;;;;;;;9.43;6.07;;;;;;;14.60;100.00;99978.25;4986847;28;20483;-90
2022/09/12 05:53:50;;;;;;;6.22;5.43;;;;;;;14.84;100.00;99989.59;4974707;28;20034;-89
2022/09/12 05:56:17;;;;;;;5.88;5.15;;;;;;;14.99;100.00;99984.91;4974332;28;20076;-90
2022/09/12 05:58:45;;;;;;;5.70;4.93;;;;;;;15.16;100.00;99991.69;4967762;28;20038;-77
2022/09/12 06:01:13;;;;;;;8.63;5.28;;;;;;;15.24;100.00;99992.16;4990937;28;20053;-77
2022/09/12 06:03:43;;;;;;;6.03;5.43;;;;;;;15.44;100.00;99989.59;4992954;28;20370;-77
2022/09/12 06:06:12;;;;;;;5.75;4.82;;;;;;;15.69;100.00;99986.41;4983621;28;20109;-77
2022/09/12 06:08:39;;;;;;;7.78;5.43;;;;;;;15.87;100.00;99982.75;5009332;28;20048;-77
2022/09/12 06:11:06;;;;;;;6.50;4.60;;;;;;;16.02;100.00;99985.59;5008892;28;20500;-77
2022/09/12 06:13:33;;;;;;;5.95;4.63;;;;;;;16.22;100.00;99974.59;5010483;28;20517;-77
2022/09/12 06:16:07;;;;;;;6.07;4.60;;;;;;;16.44;100.00;99980.66;5008480;28;20125;-77
2022/09/12 06:18:34;;;;;;;6.47;4.60;;;;;;;16.56;100.00;99985.22;5004257;28;20034;-88
2022/09/12 06:21:07;;;;;;;6.43;4.70;;;;;;;16.82;98.46;99982.69;5008604;28;20053;-89
2022/09/12 06:23:33;;;;;;;7.40;4.78;;;;;;;16.74;98.97;99981.53;5012436;28;20045;-90
2022/09/12 06:26:01;;;;;;;5.75;4.63;;;;;;;16.97;98.09;99977.09;5011074;28;20100;-89
2022/09/12 06:28:27;;;;;;;5.15;4.28;;;;;;;16.97;97.06;99986.28;5019242;28;20034;-88
2022/09/12 06:30:52;;;;;;;5.50;4.57;;;;;;;16.96;96.53;99986.75;5005877;28;20052;-90
2022/09/12 06:33:18;;;;;;;5.85;4.50;;;;;;;17.27;96.04;99996.22;5010727;28;20618;-89
2022/09/12 06:35:44;;;;;;;6.10;4.70;;;;;;;17.38;92.86;99990.06;5012283;28;20038;-89
2022/09/12 06:38:10;;;;;;;4.45;4.00;;;;;;;17.52;92.88;99992.06;5007920;28;20034;-77
2022/09/12 06:40:43;;;;;;;6.57;4.60;;;;;;;17.47;92.53;99981.50;5012121;28;20044;-77
2022/09/12 06:43:14;;;;;;;6.07;4.68;;;;;;;17.66;93.00;99993.34;5011138;28;20045;-77
2022/09/12 06:45:47;;;;;;;7.60;5.05;;;;;;;17.65;90.91;99986.94;5012572;28;20495;-77
2022/09/12 06:48:13;;;;;;;5.37;4.27;;;;;;;17.91;91.02;99984.28;5010692;28;20502;-77
2022/09/12 06:50:38;;;;;;;5.60;4.90;;;;;;;17.97;90.10;99995.56;5011313;28;20301;-77
2022/09/12 06:53:04;;;;;;;5.57;4.35;;;;;;;18.25;88.57;99987.50;5010612;28;20115;-88
2022/09/12 06:55:29;;;;;;;5.38;4.47;;;;;;;18.44;87.37;99978.31;5011339;28;20042;-88
2022/09/12 06:57:55;;;;;;;6.38;4.45;;;;;;;18.71;86.42;99981.97;5011361;28;20089;-88
2022/09/12 07:00:20;;;;;;;6.75;4.57;;;;;;;18.45;86.28;99985.47;5009719;28;20046;-88
2022/09/12 07:02:46;;;;;;;6.25;4.82;;;;;;;18.42;86.21;99980.06;5012145;28;20057;-87
2022/09/12 07:05:12;;;;;;;5.88;4.80;;;;;;;18.23;87.49;99976.78;5011573;28;20042;-88
2022/09/12 07:07:38;;;;;;;7.28;4.80;;;;;;;18.52;86.84;99987.88;5011210;28;20126;-89
2022/09/12 07:10:05;;;;;;;5.57;4.40;;;;;;;18.45;86.73;99988.28;5011212;28;20136;-88
2022/09/12 07:12:31;;;;;;;4.90;4.25;;;;;;;18.74;85.71;99989.41;5010497;28;20116;-87
2022/09/12 07:14:56;;;;;;;6.28;4.20;;;;;;;18.92;83.81;99995.50;5011229;28;20121;-88
2022/09/12 07:17:22;;;;;;;5.13;4.60;;;;;;;18.90;84.43;99997.25;5011028;28;20065;-87
2022/09/12 07:19:47;;;;;;;5.97;4.72;;;;;;;19.20;84.28;99995.78;5011541;28;20092;-87
2022/09/12 07:22:13;;;;;;;6.10;4.60;;;;;;;19.33;81.46;99993.31;4993437;28;20046;-87
2022/09/12 07:24:40;;;;;;;5.55;4.50;;;;;;;19.39;80.84;99977.25;4992971;28;20042;-87
2022/09/12 07:27:05;;;;;;;5.25;4.32;;;;;;;19.51;80.75;99997.84;4993960;28;20491;-87
2022/09/12 07:29:31;;;;;;;5.53;3.92;;;;;;;19.48;78.98;99999.63;5010498;28;20037;-88
2022/09/12 07:31:56;;;;;;;6.15;4.18;;;;;;;19.42;78.28;99993.16;5011846;28;20365;-88
2022/09/12 07:34:22;;;;;;;4.80;4.30;;;;;;;19.55;78.64;99996.34;5010862;28;20483;-76
2022/09/12 07:36:47;;;;;;;6.25;4.72;;;;;;;19.23;78.69;100000.41;5010639;28;20042;-76
2022/09/12 07:39:13;;;;;;;7.47;4.53;;;;;;;19.31;78.92;99998.69;4993205;28;20046;-75
2022/09/12 07:41:38;;;;;;;7.00;4.43;;;;;;;19.52;79.06;100008.59;4992898;28;20046;-76
2022/09/12 07:44:05;;;;;;;4.82;4.00;;;;;;;19.94;77.86;100007.88;5010206;28;20216;-78
2022/09/12 07:46:31;;;;;;;5.05;4.53;;;;;;;19.85;76.91;100007.31;5010052;28;20038;-77
2022/09/12 07:48:58;;;;;;;5.35;4.55;;;;;;;19.98;77.88;100011.22;4993393;28;20069;-75
2022/09/12 07:51:28;;;;;;;5.13;4.63;;;;;;;20.20;77.38;100009.81;5010927;28;20092;-75
2022/09/12 07:53:53;;;;;;;9.13;4.50;;;;;;;20.06;77.18;100005.16;5009277;28;20125;-78
2022/09/12 07:56:20;;;;;;;5.10;4.22;;;;;;;20.14;77.12;100012.59;4998784;28;20444;-78
2022/09/12 07:58:45;;;;;;;5.85;4.60;;;;;;;20.54;76.07;100007.97;5003349;28;20049;-75
2022/09/12 08:01:13;;;;;;;6.88;4.18;;;;;;;20.40;75.95;100007.66;4997847;28;20034;-76
2022/09/12 08:03:40;;;;;;;5.35;4.40;;;;;;;20.50;75.65;99999.75;4984591;28;20057;-76
2022/09/12 08:06:10;;;;;;;5.00;4.15;;;;;;;20.85;74.05;100002.16;5000873;28;20045;-76
2022/09/12 08:08:37;;;;;;;5.18;4.30;;;;;;;20.77;72.71;100003.94;5008522;28;20125;-76
2022/09/12 08:11:11;;;;;;;4.88;4.20;;;;;;;20.50;74.40;99998.97;5002226;28;20065;-76
2022/09/12 08:13:38;;;;;;;6.32;4.43;;;;;;;20.60;73.87;100000.28;5005259;28;20048;-76
2022/09/12 08:16:10;;;;;;;5.05;4.43;;;;;;;20.52;73.71;100004.88;4998724;28;20037;-76
2022/09/12 08:18:36;;;;;;;5.40;4.43;;;;;;;20.45;72.86;99987.19;4966798;28;20050;-76
2022/09/12 08:21:08;;;;;;;4.63;3.70;;;;;;;20.70;70.77;99999.56;5007155;28;20038;-76
2022/09/12 08:23:34;;;;;;;5.72;4.30;;;;;;;20.72;71.08;99987.78;4978708;28;20527;-76
2022/09/12 08:26:02;;;;;;;6.03;4.35;;;;;;;20.91;70.94;99997.28;5007528;28;20076;-76
2022/09/12 08:28:28;;;;;;;5.10;4.05;;;;;;;21.20;69.16;99999.69;5006737;28;20061;-90
2022/09/12 08:31:09;;;;;;;5.78;4.22;;;;;;;21.19;68.43;100003.78;5002181;28;20073;-76
2022/09/12 08:33:34;;;;;;;4.40;3.85;;;;;;;21.40;69.84;99999.44;4990545;28;20050;-76
2022/09/12 08:36:05;;;;;;;5.95;4.15;;;;;;;21.57;67.26;99990.22;4989871;28;20045;-76
2022/09/12 08:38:33;;;;;;;5.00;4.15;;;;;;;21.87;67.79;99999.69;5007519;28;20565;-76
2022/09/12 08:41:01;;;;;;;5.07;4.00;;;;;;;21.90;66.74;99995.81;5007031;28;20037;-75
2022/09/12 08:43:51;;;;;;;7.03;4.30;;;;;;;22.15;64.26;99994.00;5008555;28;20046;-76
2022/09/12 08:46:26;;;;;;;6.22;3.83;;;;;;;22.00;63.67;99997.09;5008018;28;20085;-77
2022/09/12 08:48:52;;;;;;;5.25;4.03;;;;;;;22.17;64.25;99992.19;4991004;28;20050;-76
2022/09/12 08:51:19;;;;;;;4.40;3.70;;;;;;;22.09;65.67;99988.34;4989481;28;20057;-76
2022/09/12 08:53:46;;;;;;;5.00;3.72;;;;;;;22.36;63.49;99988.78;5007696;28;20499;-76
2022/09/12 08:56:12;;;;;;;6.05;3.90;;;;;;;22.49;61.34;99989.75;4989053;28;20053;-76
2022/09/12 08:58:40;;;;;;;4.15;3.60;;;;;;;22.53;62.82;99987.41;4992028;28;20038;-76
2022/09/12 09:01:31;;;;;;;4.22;3.47;;;;;;;22.60;62.01;99988.94;4989588;28;20038;-76
2022/09/12 09:04:34;;;;;;;3.88;3.50;;;;;;;22.60;61.92;99986.13;5007922;28;20181;-76
2022/09/12 09:07:18;;;;;;;6.50;3.78;;;;;;;22.80;60.83;99987.84;5003424;28;20042;-76
2022/09/12 09:10:16;;;;;;;4.65;3.70;;;;;;;22.57;62.00;99992.78;5007174;28;20455;-76
2022/09/12 09:13:10;;;;;;;4.18;3.45;;;;;;;22.86;61.63;99978.03;5003585;28;20050;-76
2022/09/12 09:15:56;;;;;;;5.97;3.60;;;;;;;22.69;61.21;99983.00;4989608;28;20053;-76
2022/09/12 09:18:30;;;;;;;4.75;3.63;;;;;;;22.87;61.79;99982.41;4991355;28;20050;-76
2022/09/12 09:21:17;;;;;;;5.72;3.90;;;;;;;22.61;61.92;99976.34;4993113;28;20112;-76
2022/09/12 09:23:47;;;;;;;5.80;3.78;;;;;;;22.57;61.63;99970.19;4973182;28;20045;-76
2022/09/12 09:26:17;;;;;;;4.07;3.40;;;;;;;22.33;62.26;99982.88;5010753;28;20525;-76
2022/09/12 09:28:56;;;;;;;6.40;3.78;;;;;;;22.39;61.88;99976.44;5015007;28;20038;-90
2022/09/12 09:31:24;;;;;;;4.10;3.20;;;;;;;22.70;60.66;99976.84;5008978;28;20053;-88
2022/09/12 09:33:52;;;;;;;4.40;3.45;;;;;;;23.25;59.94;99983.44;5012909;28;20046;-89
2022/09/12 09:36:46;;;;;;;4.35;3.25;;;;;;;23.27;58.01;99980.06;5013177;28;20034;-90
2022/09/12 09:39:27;;;;;;;5.72;3.60;;;;;;;23.36;55.94;99982.56;5008308;28;20973;-90
2022/09/12 09:42:10;;;;;;;4.35;3.58;;;;;;;22.99;57.27;99978.22;5012817;28;20125;-90
2022/09/12 09:44:36;;;;;;;6.13;3.20;;;;;;;22.94;58.78;99969.75;4995082;28;20558;-76
2022/09/12 09:47:01;;;;;;;3.95;3.35;;;;;;;23.14;58.79;99961.63;5013098;28;20046;-88
2022/09/12 09:49:29;;;;;;;4.90;3.67;;;;;;;23.18;57.76;99962.13;5013170;28;20045;-87
2022/09/12 09:51:56;;;;;;;5.60;3.50;;;;;;;23.05;57.41;99964.78;5012704;28;20044;-89
2022/09/12 09:54:51;;;;;;;4.53;3.40;;;;;;;23.19;57.73;99963.66;5013044;28;20046;-89
2022/09/12 09:57:35;;;;;;;3.95;3.33;;;;;;;23.52;55.71;99959.03;5007883;28;20505;-89
2022/09/12 10:00:26;;;;;;;4.72;3.35;;;;;;;23.70;56.45;99949.84;5012394;28;20038;-88
2022/09/12 10:03:13;;;;;;;4.57;3.28;;;;;;;23.55;56.19;99957.97;4996312;28;20432;-89
2022/09/12 10:05:46;;;;;;;4.90;3.55;;;;;;;23.65;55.06;99954.28;5012369;28;20502;-89
2022/09/12 10:08:25;;;;;;;3.97;3.25;;;;;;;23.87;56.88;99946.84;5005767;28;20034;-89
2022/09/12 10:10:55;;;;;;;4.97;3.22;;;;;;;24.10;53.56;99948.16;5013280;28;20140;-89
2022/09/12 10:13:30;;;;;;;4.20;3.30;;;;;;;24.43;53.81;99947.75;5007799;28;20053;-89
2022/09/12 10:16:04;;;;;;;3.58;3.05;;;;;;;24.49;51.29;99948.47;4976614;28;20404;-89
2022/09/12 10:18:42;;;;;;;4.65;3.30;;;;;;;24.81;51.83;99948.53;5012950;28;20045;-87
2022/09/12 10:21:14;;;;;;;5.80;3.40;;;;;;;24.40;52.15;99948.06;5012178;28;20507;-88
2022/09/12 10:23:41;;;;;;;3.72;3.17;;;;;;;24.64;51.19;99945.16;5007607;28;20046;-88
2022/09/12 10:26:12;;;;;;;4.60;3.30;;;;;;;24.94;51.20;99948.63;4976016;28;20133;-77
2022/09/12 10:28:39;;;;;;;4.60;3.15;;;;;;;24.43;51.59;99942.06;4993577;28;20038;-77
2022/09/12 10:31:10;;;;;;;4.18;3.15;;;;;;;24.42;50.85;99936.97;4994567;28;20407;-77
2022/09/12 10:33:42;;;;;;;5.20;3.35;;;;;;;24.09;50.97;99940.94;5012304;28;20050;-76
2022/09/12 10:36:07;;;;;;;4.45;3.45;;;;;;;23.44;53.46;99926.94;5011694;28;20044;-77
2022/09/12 10:38:33;;;;;;;3.85;3.28;;;;;;;23.40;54.52;99915.88;5011698;28;20046;-77
2022/09/12 10:41:05;;;;;;;6.38;3.63;;;;;;;23.93;52.70;99925.66;4991823;28;20128;-77
2022/09/12 10:43:39;;;;;;;4.00;3.30;;;;;;;23.83;53.17;99923.72;4984644;28;20172;-77
2022/09/12 10:46:17;;;;;;;4.85;3.25;;;;;;;23.89;54.34;99933.69;4986729;28;20567;-77
2022/09/12 10:48:46;;;;;;;3.90;3.08;;;;;;;23.74;53.44;99939.00;5011262;28;20069;-76
2022/09/12 10:51:24;;;;;;;5.85;3.50;;;;;;;23.21;54.57;99937.69;4988450;28;20047;-77
2022/09/12 10:54:01;;;;;;;4.22;3.13;;;;;;;23.10;54.89;99921.53;5011438;28;20077;-77
2022/09/12 10:56:30;;;;;;;5.40;3.70;;;;;;;22.95;55.59;99928.88;4994570;28;20431;-77
2022/09/12 10:59:27;;;;;;;4.95;3.30;;;;;;;22.83;55.09;99933.84;4992913;28;20035;-77
2022/09/12 11:01:59;;;;;;;4.55;3.67;;;;;;;22.65;55.65;99938.00;4994369;28;20108;-77
2022/09/12 11:04:46;;;;;;;4.95;3.63;;;;;;;22.59;56.33;99933.69;4994422;28;20042;-77
2022/09/12 11:07:41;;;;;;;4.97;3.60;;;;;;;22.82;56.37;99934.34;4998868;28;20041;-77
2022/09/12 11:10:25;;;;;;;6.05;3.55;;;;;;;22.95;57.05;99938.13;5008290;28;20492;-77
2022/09/12 11:13:15;;;;;;;3.60;3.13;;;;;;;23.34;54.22;99920.06;5011638;28;20058;-77
2022/09/12 11:15:46;;;;;;;4.78;3.35;;;;;;;23.57;53.82;99927.09;5022688;28;20045;-77
2022/09/12 11:18:32;;;;;;;7.00;3.50;;;;;;;23.25;53.69;99924.00;5009558;28;20166;-76
2022/09/12 11:21:01;;;;;;;4.25;3.40;;;;;;;22.86;53.39;99929.19;5007518;28;20054;-76
2022/09/12 11:23:38;;;;;;;6.55;3.53;;;;;;;22.76;53.71;99915.38;5004227;28;20042;-89
2022/09/12 11:40:26;;;;;;;5.03;3.85;;;;;;;21.94;61.90;99925.75;5056134;27;20752;-75
2022/09/12 11:42:59;;;;;;;6.15;3.78;;;;;;;22.05;61.98;99920.06;5036493;28;20029;-76
2022/09/12 11:45:29;;;;;;;4.05;3.40;;;;;;;22.02;61.85;99929.59;5042455;28;20029;-75
2022/09/12 11:47:58;;;;;;;5.82;3.83;;;;;;;22.14;61.41;99933.91;5042914;28;20029;-77
2022/09/12 11:50:27;;;;;;;5.70;3.88;;;;;;;21.79;63.32;99936.56;5043913;28;20029;-77
2022/09/12 11:52:57;;;;;;;4.70;3.85;;;;;;;21.70;63.90;99934.78;5042563;28;20090;-76
2022/09/12 11:55:27;;;;;;;4.63;3.53;;;;;;;21.97;63.87;99941.66;5053958;27;20514;-76
2022/09/12 11:57:59;;;;;;;5.30;4.00;;;;;;;22.40;62.48;99927.13;5043252;28;20033;-77
2022/09/12 12:00:35;;;;;;;4.10;3.70;;;;;;;22.98;59.23;99925.75;5040609;28;20033;-77